Time;durP1;ratioP1;P1;durP2;ratioP2;P2;SDS_P1;SDS_P2;PMS_P1;PMS_P2;Temp;Humidity;BMP_temperature;BMP_pressure;BME280_temperature;BME280_humidity;BME280_pressure;Samples;Min_cycle;Max_cycle;Signal;HPM_P1;HPM_P2
2021/06/12 00:00:35;;;;;;;4.85;1.90;;;;;;;;;;5075928;28;20419;-68
2021/06/12 00:03:02;;;;;;;6.45;1.98;;;;;;;;;;5075819;28;20024;-68
2021/06/12 00:05:28;;;;;;;5.85;1.85;;;;;;;;;;5075664;28;20388;-68
2021/06/12 00:07:54;;;;;;;7.57;1.98;;;;;;;;;;5075239;28;20545;-68
2021/06/12 00:10:25;;;;;;;3.67;1.95;;;;;;;;;;5075687;28;20025;-68
2021/06/12 00:12:51;;;;;;;6.60;2.13;;;;;;;;;;5075802;28;20103;-69
2021/06/12 00:15:19;;;;;;;2.75;1.83;;;;;;;;;;5075506;28;20586;-68
2021/06/12 00:17:45;;;;;;;7.28;2.25;;;;;;;;;;5074597;28;20484;-68
2021/06/12 00:20:14;;;;;;;6.57;2.15;;;;;;;;;;5072879;28;20033;-68
2021/06/12 00:22:42;;;;;;;4.22;2.10;;;;;;;;;;5072586;28;20052;-68
2021/06/12 00:25:08;;;;;;;4.47;2.22;;;;;;;;;;5074874;28;20028;-68
2021/06/12 00:27:34;;;;;;;6.18;1.90;;;;;;;;;;5074821;28;20021;-68
2021/06/12 00:30:00;;;;;;;7.90;2.22;;;;;;;;;;5075178;28;20024;-69
2021/06/12 00:32:26;;;;;;;3.20;2.17;;;;;;;;;;5075193;28;20024;-69
2021/06/12 00:34:52;;;;;;;5.15;2.30;;;;;;;;;;5075378;28;20036;-68
2021/06/12 00:37:18;;;;;;;2.33;2.13;;;;;;;;;;5075206;28;20028;-68
2021/06/12 00:39:44;;;;;;;5.63;2.10;;;;;;;;;;5075254;28;20020;-68
2021/06/12 00:42:10;;;;;;;4.05;2.30;;;;;;;;;;5075255;28;20421;-69
2021/06/12 00:44:37;;;;;;;2.47;2.22;;;;;;;;;;5075134;28;20032;-68
2021/06/12 00:47:03;;;;;;;5.43;2.78;;;;;;;;;;5075096;28;20032;-68
2021/06/12 00:49:29;;;;;;;4.55;2.63;;;;;;;;;;5075001;28;20025;-68
2021/06/12 00:51:55;;;;;;;2.72;2.30;;;;;;;;;;5073710;28;20389;-68
2021/06/12 00:54:21;;;;;;;4.28;2.10;;;;;;;;;;5074535;28;20538;-68
2021/06/12 00:56:47;;;;;;;5.10;2.47;;;;;;;;;;5074754;28;20025;-67
2021/06/12 00:59:13;;;;;;;4.03;2.85;;;;;;;;;;5072210;28;20028;-68
2021/06/12 01:01:39;;;;;;;5.90;2.20;;;;;;;;;;5072118;28;20025;-68
2021/06/12 01:04:06;;;;;;;5.35;2.15;;;;;;;;;;5072665;28;20167;-68
2021/06/12 01:06:32;;;;;;;3.70;1.90;;;;;;;;;;5074118;28;20024;-68
2021/06/12 01:08:58;;;;;;;3.15;2.00;;;;;;;;;;5074832;28;20350;-68
2021/06/12 01:11:24;;;;;;;7.70;1.88;;;;;;;;;;5074444;28;20024;-68
2021/06/12 01:14:11;;;;;;;6.88;2.10;;;;;;;;;;5074131;28;20025;-67
2021/06/12 01:16:49;;;;;;;3.08;2.10;;;;;;;;;;5074397;28;20407;-68
2021/06/12 01:19:21;;;;;;;6.47;2.97;;;;;;;;;;5074397;28;20094;-69
2021/06/12 01:21:51;;;;;;;4.80;2.70;;;;;;;;;;5074114;28;20040;-68
2021/06/12 01:24:35;;;;;;;5.68;3.70;;;;;;;;;;5074322;28;20043;-68
2021/06/12 01:27:20;;;;;;;4.25;2.83;;;;;;;;;;5074146;28;20193;-69
2021/06/12 01:30:01;;;;;;;5.72;2.40;;;;;;;;;;5073703;28;20040;-68
2021/06/12 01:32:29;;;;;;;5.63;3.42;;;;;;;;;;5074022;28;20100;-68
2021/06/12 01:34:57;;;;;;;8.43;4.50;;;;;;;;;;5074033;28;20085;-68
2021/06/12 01:37:23;;;;;;;5.88;4.20;;;;;;;;;;5073837;28;20376;-67
2021/06/12 01:39:50;;;;;;;9.15;4.63;;;;;;;;;;5073102;28;20020;-69
2021/06/12 01:42:16;;;;;;;9.15;4.93;;;;;;;;;;5073745;28;20021;-68
2021/06/12 01:44:42;;;;;;;6.07;4.90;;;;;;;;;;5073373;28;20499;-69
2021/06/12 01:47:09;;;;;;;8.65;4.95;;;;;;;;;;5073736;28;20021;-68
2021/06/12 01:49:36;;;;;;;5.97;3.65;;;;;;;;;;5073841;28;20365;-69
2021/06/12 01:52:03;;;;;;;5.90;3.00;;;;;;;;;;5073382;28;20025;-68
2021/06/12 01:54:29;;;;;;;2.88;2.45;;;;;;;;;;5073290;28;20052;-68
2021/06/12 01:56:56;;;;;;;3.72;2.42;;;;;;;;;;5073885;28;20107;-69
2021/06/12 01:59:22;;;;;;;3.88;2.00;;;;;;;;;;5073187;28;20485;-68
2021/06/12 02:01:52;;;;;;;4.03;1.95;;;;;;;;;;5073646;28;20380;-68
2021/06/12 02:04:18;;;;;;;4.07;1.83;;;;;;;;;;5073625;28;20052;-68
2021/06/12 02:06:45;;;;;;;4.15;2.10;;;;;;;;;;5073404;28;20028;-69
2021/06/12 02:09:12;;;;;;;3.42;1.73;;;;;;;;;;5073305;28;20065;-69
2021/06/12 02:11:39;;;;;;;3.63;1.95;;;;;;;;;;5073321;28;20032;-69
2021/06/12 02:14:06;;;;;;;2.22;1.90;;;;;;;;;;5073202;28;20027;-68
2021/06/12 02:16:32;;;;;;;6.45;2.20;;;;;;;;;;5072800;28;20040;-69
2021/06/12 02:18:59;;;;;;;2.75;2.00;;;;;;;;;;5073108;28;20083;-69
2021/06/12 02:21:25;;;;;;;6.63;2.00;;;;;;;;;;5073230;28;20032;-69
2021/06/12 02:23:52;;;;;;;3.67;2.30;;;;;;;;;;5073236;28;20025;-68
2021/06/12 02:26:19;;;;;;;4.38;2.15;;;;;;;;;;5073090;28;20107;-69
2021/06/12 02:28:45;;;;;;;5.60;1.95;;;;;;;;;;5073390;28;20085;-69
2021/06/12 02:31:22;;;;;;;8.10;2.33;;;;;;;;;;5073050;28;20028;-69
2021/06/12 02:33:49;;;;;;;2.42;1.88;;;;;;;;;;5073061;28;20043;-68
2021/06/12 02:36:16;;;;;;;4.05;2.20;;;;;;;;;;5072669;28;20612;-68
2021/06/12 02:38:42;;;;;;;2.97;2.20;;;;;;;;;;5072757;28;20024;-68
2021/06/12 02:41:08;;;;;;;2.55;1.83;;;;;;;;;;5073136;28;20380;-69
2021/06/12 02:43:34;;;;;;;2.15;1.60;;;;;;;;;;5073026;28;20095;-69
2021/06/12 02:46:02;;;;;;;2.80;1.92;;;;;;;;;;5073138;28;20029;-69
2021/06/12 02:48:29;;;;;;;2.10;1.80;;;;;;;;;;5072885;28;20020;-69
2021/06/12 02:50:56;;;;;;;2.42;1.90;;;;;;;;;;5072731;28;20182;-68
2021/06/12 02:53:25;;;;;;;4.63;1.88;;;;;;;;;;5072950;28;20103;-69
2021/06/12 02:55:51;;;;;;;5.80;2.17;;;;;;;;;;5072817;28;20520;-69
2021/06/12 02:58:21;;;;;;;7.15;2.40;;;;;;;;;;5072762;28;20546;-68
2021/06/12 03:00:48;;;;;;;5.82;2.28;;;;;;;;;;5072844;28;20116;-69
2021/06/12 03:03:14;;;;;;;3.35;2.63;;;;;;;;;;5072901;28;20032;-68
2021/06/12 03:05:41;;;;;;;9.40;3.00;;;;;;;;;;5072591;28;20108;-67
2021/06/12 03:08:08;;;;;;;11.20;2.95;;;;;;;;;;5072565;28;20473;-68
2021/06/12 03:10:35;;;;;;;2.85;2.55;;;;;;;;;;5072696;28;20029;-68
2021/06/12 03:13:02;;;;;;;6.97;3.13;;;;;;;;;;5072430;28;20059;-68
2021/06/12 03:15:29;;;;;;;6.45;2.70;;;;;;;;;;5072624;28;20415;-69
2021/06/12 03:17:56;;;;;;;5.53;2.88;;;;;;;;;;5072697;28;20112;-68
2021/06/12 03:20:22;;;;;;;5.38;2.90;;;;;;;;;;5072517;28;20439;-68
2021/06/12 03:22:51;;;;;;;5.45;2.67;;;;;;;;;;5072554;28;20138;-68
2021/06/12 03:25:20;;;;;;;10.52;2.88;;;;;;;;;;5072696;28;20032;-69
2021/06/12 03:27:46;;;;;;;5.18;2.90;;;;;;;;;;5072713;28;20029;-68
2021/06/12 03:30:13;;;;;;;6.03;3.10;;;;;;;;;;5072131;28;20051;-68
2021/06/12 03:32:39;;;;;;;6.32;2.53;;;;;;;;;;5072372;28;20038;-69
2021/06/12 03:35:05;;;;;;;5.25;2.67;;;;;;;;;;5072440;28;20032;-68
2021/06/12 03:37:35;;;;;;;12.07;3.00;;;;;;;;;;5072911;28;20025;-69
2021/06/12 03:40:01;;;;;;;5.05;2.80;;;;;;;;;;5072581;28;20024;-68
2021/06/12 03:42:27;;;;;;;6.30;3.00;;;;;;;;;;5072645;28;20108;-68
2021/06/12 03:44:55;;;;;;;5.18;2.88;;;;;;;;;;5072396;28;20052;-68
2021/06/12 03:47:22;;;;;;;3.83;2.85;;;;;;;;;;5072386;28;20024;-68
2021/06/12 03:49:48;;;;;;;4.90;2.90;;;;;;;;;;5072374;28;20406;-68
2021/06/12 03:52:15;;;;;;;4.18;3.17;;;;;;;;;;5072176;28;20031;-68
2021/06/12 03:54:41;;;;;;;6.85;3.15;;;;;;;;;;5071875;28;20128;-68
2021/06/12 03:57:07;;;;;;;5.43;2.97;;;;;;;;;;5072486;28;20445;-68
2021/06/12 03:59:33;;;;;;;6.57;2.92;;;;;;;;;;5072104;28;20060;-68
2021/06/12 04:02:01;;;;;;;6.22;3.22;;;;;;;;;;5072911;28;20027;-68
2021/06/12 04:04:27;;;;;;;5.80;3.28;;;;;;;;;;5076074;28;20033;-68
2021/06/12 04:06:54;;;;;;;4.72;3.40;;;;;;;;;;5075936;28;20372;-68
2021/06/12 04:09:20;;;;;;;8.65;3.20;;;;;;;;;;5075491;28;20036;-68
2021/06/12 04:11:46;;;;;;;5.97;3.30;;;;;;;;;;5075867;28;20357;-68
2021/06/12 04:14:12;;;;;;;5.10;3.30;;;;;;;;;;5075564;28;20111;-68
2021/06/12 04:16:38;;;;;;;8.20;3.35;;;;;;;;;;5075757;28;20141;-68
2021/06/12 04:19:04;;;;;;;5.78;2.90;;;;;;;;;;5075746;28;20101;-68
2021/06/12 04:21:30;;;;;;;5.80;3.13;;;;;;;;;;5075361;28;20029;-69
2021/06/12 04:23:56;;;;;;;3.13;2.67;;;;;;;;;;5075431;28;20025;-68
2021/06/12 04:26:22;;;;;;;3.90;2.40;;;;;;;;;;5075259;28;20111;-68
2021/06/12 04:28:48;;;;;;;6.38;2.53;;;;;;;;;;5075252;28;20055;-69
2021/06/12 04:31:14;;;;;;;11.10;2.65;;;;;;;;;;5075258;28;20056;-68
2021/06/12 04:33:40;;;;;;;4.22;2.38;;;;;;;;;;5075058;28;20101;-69
2021/06/12 04:36:07;;;;;;;5.10;2.80;;;;;;;;;;5075155;28;20040;-68
2021/06/12 04:38:33;;;;;;;3.33;2.70;;;;;;;;;;5075235;28;20051;-68
2021/06/12 04:40:59;;;;;;;3.08;2.17;;;;;;;;;;5074984;28;20073;-70
2021/06/12 04:43:25;;;;;;;3.75;2.20;;;;;;;;;;5075033;28;20024;-69
2021/06/12 04:45:51;;;;;;;5.05;2.67;;;;;;;;;;5073750;28;20066;-69
2021/06/12 04:48:17;;;;;;;2.83;2.53;;;;;;;;;;5075119;28;20388;-69
2021/06/12 04:50:43;;;;;;;3.53;2.22;;;;;;;;;;5075121;28;20031;-69
2021/06/12 04:53:10;;;;;;;4.07;2.35;;;;;;;;;;5074827;28;20499;-68
2021/06/12 04:55:37;;;;;;;4.05;2.72;;;;;;;;;;5073543;28;20386;-69
2021/06/12 04:58:03;;;;;;;7.10;2.38;;;;;;;;;;5075174;28;20053;-69
2021/06/12 05:00:30;;;;;;;10.43;2.38;;;;;;;;;;5074830;28;20016;-69
2021/06/12 05:02:56;;;;;;;3.80;2.42;;;;;;;;;;5073685;28;20032;-70
2021/06/12 05:05:22;;;;;;;4.82;2.25;;;;;;;;;;5073689;28;20066;-68
2021/06/12 05:07:48;;;;;;;3.72;2.70;;;;;;;;;;5072849;28;20035;-68
2021/06/12 05:10:14;;;;;;;4.00;2.20;;;;;;;;;;5074038;28;20024;-69
2021/06/12 05:12:41;;;;;;;4.60;2.40;;;;;;;;;;5073816;28;20454;-69
2021/06/12 05:15:08;;;;;;;3.53;2.00;;;;;;;;;;5073257;28;20032;-69
2021/06/12 05:17:34;;;;;;;6.28;2.22;;;;;;;;;;5073311;28;20079;-70
2021/06/12 05:20:00;;;;;;;8.23;2.50;;;;;;;;;;5073434;28;20111;-69
2021/06/12 05:22:27;;;;;;;2.83;2.20;;;;;;;;;;5072963;28;20112;-70
2021/06/12 05:24:54;;;;;;;4.75;2.22;;;;;;;;;;5073416;28;20047;-69
2021/06/12 05:27:20;;;;;;;5.93;2.30;;;;;;;;;;5073103;28;20050;-70
2021/06/12 05:29:46;;;;;;;4.18;2.05;;;;;;;;;;5073284;28;20025;-70
2021/06/12 05:32:12;;;;;;;3.58;2.03;;;;;;;;;;5073690;28;20381;-69
2021/06/12 05:34:39;;;;;;;4.35;2.08;;;;;;;;;;5074059;28;20025;-70
2021/06/12 05:37:05;;;;;;;3.80;2.30;;;;;;;;;;5073907;28;20572;-69
2021/06/12 05:39:31;;;;;;;4.97;1.90;;;;;;;;;;5073142;28;20024;-69
2021/06/12 05:41:57;;;;;;;3.17;2.08;;;;;;;;;;5073319;28;20431;-68
2021/06/12 05:44:23;;;;;;;7.85;2.25;;;;;;;;;;5074127;28;20032;-69
2021/06/12 05:46:50;;;;;;;7.22;2.45;;;;;;;;;;5073998;28;20056;-69
2021/06/12 05:49:17;;;;;;;7.50;2.65;;;;;;;;;;5073602;28;20435;-69
2021/06/12 05:51:43;;;;;;;5.90;2.33;;;;;;;;;;5073520;28;20024;-69
2021/06/12 05:54:09;;;;;;;3.17;2.42;;;;;;;;;;5073136;28;20467;-69
2021/06/12 05:56:35;;;;;;;9.80;2.83;;;;;;;;;;5073316;28;20042;-70
2021/06/12 05:59:01;;;;;;;2.50;2.30;;;;;;;;;;5072258;28;20025;-67
2021/06/12 06:01:27;;;;;;;5.28;2.60;;;;;;;;;;5072676;28;20492;-69
2021/06/12 06:03:53;;;;;;;7.90;2.50;;;;;;;;;;5073131;28;20047;-68
2021/06/12 06:06:19;;;;;;;7.28;2.58;;;;;;;;;;5073504;28;20029;-67
2021/06/12 06:08:45;;;;;;;3.85;2.25;;;;;;;;;;5073545;28;20051;-67
2021/06/12 06:11:11;;;;;;;4.28;2.40;;;;;;;;;;5073765;28;20079;-67
2021/06/12 06:13:38;;;;;;;2.33;2.00;;;;;;;;;;5073547;28;20048;-67
2021/06/12 06:16:04;;;;;;;3.67;2.25;;;;;;;;;;5073387;28;20543;-69
2021/06/12 06:18:31;;;;;;;4.10;2.33;;;;;;;;;;5073591;28;20070;-65
2021/06/12 06:20:57;;;;;;;4.32;2.15;;;;;;;;;;5073519;28;20025;-67
2021/06/12 06:23:23;;;;;;;3.63;2.40;;;;;;;;;;5073390;28;20027;-69
2021/06/12 06:25:49;;;;;;;6.50;2.40;;;;;;;;;;5072905;28;20028;-68
2021/06/12 06:28:15;;;;;;;5.30;2.50;;;;;;;;;;5073272;28;20097;-69
2021/06/12 06:30:41;;;;;;;4.50;2.40;;;;;;;;;;5073137;28;20036;-68
2021/06/12 06:33:07;;;;;;;4.20;2.22;;;;;;;;;;5073120;28;20021;-69
2021/06/12 06:35:33;;;;;;;5.00;2.25;;;;;;;;;;5073241;28;20036;-69
2021/06/12 06:37:59;;;;;;;3.72;2.53;;;;;;;;;;5073182;28;20021;-70
2021/06/12 06:40:26;;;;;;;4.30;2.30;;;;;;;;;;5073111;28;20078;-67
2021/06/12 06:42:52;;;;;;;6.70;2.88;;;;;;;;;;5073421;28;20393;-67
2021/06/12 06:45:18;;;;;;;5.10;2.38;;;;;;;;;;5072964;28;20470;-68
2021/06/12 06:47:44;;;;;;;4.93;2.83;;;;;;;;;;5072617;28;20082;-67
2021/06/12 06:50:10;;;;;;;3.33;2.00;;;;;;;;;;5071622;28;20042;-68
2021/06/12 06:52:36;;;;;;;10.57;3.65;;;;;;;;;;5073164;28;20031;-67
2021/06/12 06:55:03;;;;;;;3.92;2.15;;;;;;;;;;5072953;28;20123;-67
2021/06/12 06:57:29;;;;;;;4.65;3.05;;;;;;;;;;5072965;28;20032;-67
2021/06/12 06:59:55;;;;;;;4.40;2.08;;;;;;;;;;5073361;28;20505;-68
2021/06/12 07:02:21;;;;;;;3.13;2.30;;;;;;;;;;5073321;28;20046;-68
2021/06/12 07:04:47;;;;;;;3.20;2.35;;;;;;;;;;5073259;28;20477;-67
2021/06/12 07:07:13;;;;;;;2.83;2.05;;;;;;;;;;5073141;28;20107;-67
2021/06/12 07:09:39;;;;;;;3.58;2.20;;;;;;;;;;5073150;28;20108;-67
2021/06/12 07:12:06;;;;;;;6.63;2.63;;;;;;;;;;5072933;28;20044;-67
2021/06/12 07:14:32;;;;;;;2.90;2.10;;;;;;;;;;5072915;28;20025;-67
2021/06/12 07:16:58;;;;;;;6.18;1.98;;;;;;;;;;5073108;28;20139;-67
2021/06/12 07:19:24;;;;;;;3.50;2.13;;;;;;;;;;5071211;28;20043;-67
2021/06/12 07:21:50;;;;;;;2.25;1.85;;;;;;;;;;5069906;28;20115;-68
2021/06/12 07:24:16;;;;;;;3.38;2.53;;;;;;;;;;5069809;28;20446;-66
2021/06/12 07:26:43;;;;;;;5.13;2.10;;;;;;;;;;5071945;28;20020;-66
2021/06/12 07:29:12;;;;;;;4.80;2.40;;;;;;;;;;5072717;28;20388;-68
2021/06/12 07:31:39;;;;;;;4.63;2.20;;;;;;;;;;5072729;28;20025;-66
2021/06/12 07:34:06;;;;;;;7.00;3.35;;;;;;;;;;5071119;28;20430;-68
2021/06/12 07:36:33;;;;;;;3.20;2.65;;;;;;;;;;5072768;28;20036;-67
2021/06/12 07:38:59;;;;;;;6.35;2.20;;;;;;;;;;5076104;28;20028;-67
2021/06/12 07:41:26;;;;;;;3.30;2.25;;;;;;;;;;5074371;28;20037;-67
2021/06/12 07:43:52;;;;;;;4.53;2.30;;;;;;;;;;5073696;28;20033;-68
2021/06/12 07:46:18;;;;;;;5.60;2.10;;;;;;;;;;5075175;28;20028;-68
2021/06/12 07:48:44;;;;;;;4.15;2.30;;;;;;;;;;5076331;28;20444;-68
2021/06/12 07:51:10;;;;;;;3.63;2.47;;;;;;;;;;5076623;28;20025;-67
2021/06/12 07:53:36;;;;;;;2.85;1.90;;;;;;;;;;5076261;28;20021;-67
2021/06/12 07:56:03;;;;;;;3.60;2.30;;;;;;;;;;5075970;28;20106;-68
2021/06/12 07:58:29;;;;;;;5.43;1.90;;;;;;;;;;5076369;28;20028;-68
2021/06/12 08:00:55;;;;;;;7.38;2.60;;;;;;;;;;5076111;28;20381;-68
2021/06/12 08:03:21;;;;;;;5.68;2.20;;;;;;;;;;5076222;28;20036;-68
2021/06/12 08:05:47;;;;;;;4.20;2.67;;;;;;;;;;5076047;28;20028;-68
2021/06/12 08:08:13;;;;;;;2.78;2.13;;;;;;;;;;5074936;28;20074;-67
2021/06/12 08:10:39;;;;;;;3.15;2.22;;;;;;;;;;5076110;28;20020;-68
2021/06/12 08:13:05;;;;;;;4.10;2.05;;;;;;;;;;5076022;28;20507;-67
2021/06/12 08:15:31;;;;;;;3.92;2.13;;;;;;;;;;5075869;28;20114;-67
2021/06/12 08:17:57;;;;;;;2.10;1.90;;;;;;;;;;5075883;28;20029;-67
2021/06/12 08:20:24;;;;;;;2.97;2.13;;;;;;;;;;5075944;28;20032;-68
2021/06/12 08:22:50;;;;;;;2.10;1.90;;;;;;;;;;5075745;28;20074;-68
2021/06/12 08:25:17;;;;;;;4.55;2.08;;;;;;;;;;5075873;28;20036;-69
2021/06/12 08:27:43;;;;;;;2.38;1.98;;;;;;;;;;5075560;28;20477;-67
2021/06/12 08:30:10;;;;;;;2.40;2.17;;;;;;;;;;5075423;28;20028;-68
2021/06/12 08:32:37;;;;;;;3.45;2.22;;;;;;;;;;5075702;28;20029;-69
2021/06/12 08:35:03;;;;;;;3.28;2.20;;;;;;;;;;5074681;28;20021;-68
2021/06/12 08:37:29;;;;;;;4.22;2.50;;;;;;;;;;5075277;28;20035;-68
2021/06/12 08:39:55;;;;;;;8.60;2.20;;;;;;;;;;5075223;28;20150;-68
2021/06/12 08:42:22;;;;;;;6.20;2.30;;;;;;;;;;5074312;28;20032;-68
2021/06/12 08:44:48;;;;;;;4.07;2.08;;;;;;;;;;5075145;28;20024;-68
2021/06/12 08:47:15;;;;;;;2.95;2.33;;;;;;;;;;5075485;28;20465;-68
2021/06/12 08:49:41;;;;;;;5.35;1.98;;;;;;;;;;5075268;28;20056;-68
2021/06/12 08:52:07;;;;;;;6.38;2.35;;;;;;;;;;5075378;28;20377;-69
2021/06/12 08:54:33;;;;;;;4.07;2.92;;;;;;;;;;5075249;28;20049;-69
2021/06/12 08:56:59;;;;;;;9.65;2.17;;;;;;;;;;5074196;28;20599;-68
2021/06/12 08:59:31;;;;;;;4.97;2.25;;;;;;;;;;5074922;28;20396;-68
2021/06/12 09:01:57;;;;;;;7.35;2.10;;;;;;;;;;5075009;28;20031;-68
2021/06/12 09:04:45;;;;;;;2.78;2.10;;;;;;;;;;5075122;28;20115;-69
2021/06/12 09:07:18;;;;;;;3.92;1.95;;;;;;;;;;5075230;28;20362;-68
2021/06/12 09:09:44;;;;;;;2.10;1.80;;;;;;;;;;5074912;28;20049;-68
2021/06/12 09:12:10;;;;;;;3.22;2.20;;;;;;;;;;5075016;28;20476;-69
2021/06/12 09:14:36;;;;;;;2.60;2.10;;;;;;;;;;5074719;28;20021;-68
2021/06/12 09:17:02;;;;;;;3.92;2.17;;;;;;;;;;5075015;28;20385;-68
2021/06/12 09:19:28;;;;;;;4.22;1.92;;;;;;;;;;5074724;28;20024;-68
2021/06/12 09:21:58;;;;;;;2.10;1.90;;;;;;;;;;5075111;28;20024;-68
2021/06/12 09:24:26;;;;;;;3.20;2.03;;;;;;;;;;5074539;28;20108;-68
2021/06/12 09:26:57;;;;;;;2.40;1.85;;;;;;;;;;5074856;28;20021;-69
2021/06/12 09:29:32;;;;;;;2.72;1.80;;;;;;;;;;5074528;28;20361;-68
2021/06/12 09:31:58;;;;;;;3.85;2.30;;;;;;;;;;5074608;28;20473;-68
2021/06/12 09:34:25;;;;;;;2.17;1.92;;;;;;;;;;5074580;28;20021;-67
2021/06/12 09:36:51;;;;;;;3.10;2.20;;;;;;;;;;5074282;28;20119;-68
2021/06/12 09:39:18;;;;;;;3.00;2.30;;;;;;;;;;5074390;28;20020;-68
2021/06/12 09:41:46;;;;;;;6.18;2.22;;;;;;;;;;5074381;28;20074;-68
2021/06/12 09:44:13;;;;;;;7.53;1.80;;;;;;;;;;5073806;28;20016;-68
2021/06/12 09:46:45;;;;;;;4.72;2.25;;;;;;;;;;5074118;28;20024;-69
2021/06/12 09:49:14;;;;;;;3.75;2.05;;;;;;;;;;5074168;28;20052;-68
2021/06/12 09:51:40;;;;;;;6.18;2.53;;;;;;;;;;5074029;28;20024;-69
2021/06/12 09:54:07;;;;;;;3.85;2.40;;;;;;;;;;5074041;28;20046;-68
2021/06/12 09:56:33;;;;;;;3.75;1.90;;;;;;;;;;5074076;28;20485;-68
2021/06/12 09:59:00;;;;;;;3.65;2.22;;;;;;;;;;5073981;28;20021;-69
2021/06/12 10:01:30;;;;;;;4.28;2.17;;;;;;;;;;5073523;28;20107;-69
2021/06/12 10:04:17;;;;;;;2.15;1.90;;;;;;;;;;5073993;28;20070;-68
2021/06/12 10:06:43;;;;;;;3.53;2.13;;;;;;;;;;5073990;28;20022;-69
2021/06/12 10:09:09;;;;;;;5.60;2.25;;;;;;;;;;5073504;28;20483;-69
2021/06/12 10:11:35;;;;;;;8.02;1.88;;;;;;;;;;5073411;28;20028;-68
2021/06/12 10:14:03;;;;;;;4.53;1.80;;;;;;;;;;5072361;28;20108;-67
2021/06/12 10:16:31;;;;;;;2.03;1.83;;;;;;;;;;5070384;28;20060;-69
2021/06/12 10:18:58;;;;;;;2.22;1.85;;;;;;;;;;5070714;28;20025;-68
2021/06/12 10:21:25;;;;;;;6.18;1.90;;;;;;;;;;5070386;28;20081;-68
2021/06/12 10:23:51;;;;;;;2.13;1.73;;;;;;;;;;5069054;28;20021;-68
2021/06/12 10:26:21;;;;;;;2.50;1.90;;;;;;;;;;5072345;28;20016;-68
2021/06/12 10:28:47;;;;;;;3.65;2.08;;;;;;;;;;5072548;28;20017;-68
2021/06/12 10:31:15;;;;;;;5.88;1.77;;;;;;;;;;5072392;28;20111;-69
2021/06/12 10:33:46;;;;;;;2.33;2.08;;;;;;;;;;5072922;28;20028;-68
2021/06/12 10:36:15;;;;;;;5.00;3.17;;;;;;;;;;5072859;28;20037;-71
2021/06/12 10:38:41;;;;;;;3.55;2.10;;;;;;;;;;5072438;28;20021;-71
2021/06/12 10:41:27;;;;;;;9.48;2.13;;;;;;;;;;5072605;28;20029;-71
2021/06/12 10:43:55;;;;;;;4.20;2.13;;;;;;;;;;5072680;28;20020;-70
2021/06/12 10:46:23;;;;;;;4.80;2.25;;;;;;;;;;5072073;28;20028;-70
2021/06/12 10:48:53;;;;;;;8.15;2.30;;;;;;;;;;5073209;28;20442;-70
2021/06/12 10:51:25;;;;;;;8.23;2.53;;;;;;;;;;5072968;28;20029;-70
2021/06/12 10:53:53;;;;;;;;;;;;;;;;;;5073764;28;20021;-71
2021/06/12 10:56:32;;;;;;;3.85;1.92;;;;;;;;;;5072755;28;19916;-69
2021/06/12 10:58:58;;;;;;;4.25;2.30;;;;;;;;;;5072753;28;20024;-70
2021/06/12 11:01:24;;;;;;;3.28;1.77;;;;;;;;;;5073080;28;20064;-70
2021/06/12 11:03:56;;;;;;;3.03;2.10;;;;;;;;;;5073276;28;20032;-70
2021/06/12 11:06:39;;;;;;;4.93;1.83;;;;;;;;;;5073164;28;20025;-71
2021/06/12 11:09:18;;;;;;;3.58;1.67;;;;;;;;;;5072925;28;20392;-70
2021/06/12 11:11:48;;;;;;;5.15;1.98;;;;;;;;;;5074210;28;20051;-71
2021/06/12 11:14:23;;;;;;;5.60;1.63;;;;;;;;;;5074329;28;20028;-71
2021/06/12 11:17:10;;;;;;;1.90;1.70;;;;;;;;;;5074043;28;20040;-70
2021/06/12 11:19:50;;;;;;;4.43;1.83;;;;;;;;;;5075931;28;20025;-70
2021/06/12 11:22:30;;;;;;;7.38;2.10;;;;;;;;;;5077130;28;20031;-70
2021/06/12 11:25:08;;;;;;;1.95;1.73;;;;;;;;;;5076845;28;20036;-70
2021/06/12 11:27:39;;;;;;;2.35;2.00;;;;;;;;;;5076613;28;20114;-70
2021/06/12 11:30:14;;;;;;;5.80;2.00;;;;;;;;;;5076642;28;20029;-70
2021/06/12 11:32:44;;;;;;;2.75;1.88;;;;;;;;;;5076692;28;20423;-70
2021/06/12 11:35:10;;;;;;;3.78;1.70;;;;;;;;;;5060134;28;20064;-70
2021/06/12 11:37:37;;;;;;;2.50;1.83;;;;;;;;;;5075670;28;20119;-71
2021/06/12 11:40:06;;;;;;;1.90;1.70;;;;;;;;;;5073691;28;20426;-71
2021/06/12 11:42:43;;;;;;;2.42;1.90;;;;;;;;;;5073575;28;20024;-70
2021/06/12 11:45:13;;;;;;;3.40;1.80;;;;;;;;;;5075165;28;20427;-70
2021/06/12 11:47:39;;;;;;;2.55;1.80;;;;;;;;;;5076233;28;20039;-70
2021/06/12 11:50:05;;;;;;;2.25;1.98;;;;;;;;;;5076011;28;20025;-71
2021/06/12 11:52:38;;;;;;;2.35;1.65;;;;;;;;;;5076036;28;20029;-70
2021/06/12 11:55:14;;;;;;;3.63;1.88;;;;;;;;;;5076063;28;20123;-70
2021/06/12 11:57:41;;;;;;;1.80;1.67;;;;;;;;;;5076092;28;20050;-70
2021/06/12 12:00:29;;;;;;;2.28;1.80;;;;;;;;;;5075863;28;20024;-70
2021/06/12 12:03:00;;;;;;;5.03;2.10;;;;;;;;;;5075860;28;20035;-70
2021/06/12 12:05:31;;;;;;;3.42;1.80;;;;;;;;;;5076218;28;20013;-70
2021/06/12 12:07:57;;;;;;;2.28;1.90;;;;;;;;;;5075363;28;20108;-70
2021/06/12 12:10:27;;;;;;;3.35;2.13;;;;;;;;;;5075909;28;20020;-70
2021/06/12 12:12:54;;;;;;;2.67;2.08;;;;;;;;;;5075789;28;20086;-70
2021/06/12 12:15:38;;;;;;;2.30;1.80;;;;;;;;;;5075331;28;20125;-70
2021/06/12 12:18:05;;;;;;;2.10;1.90;;;;;;;;;;5075666;28;20031;-70
2021/06/12 12:20:36;;;;;;;5.60;2.20;;;;;;;;;;5075654;28;20024;-70
2021/06/12 12:23:02;;;;;;;3.63;2.20;;;;;;;;;;5074692;28;20550;-70
2021/06/12 12:25:28;;;;;;;2.38;1.90;;;;;;;;;;5075415;28;20028;-70
2021/06/12 12:28:05;;;;;;;2.53;1.88;;;;;;;;;;5075752;28;20452;-70
2021/06/12 12:30:31;;;;;;;4.93;2.22;;;;;;;;;;5075647;28;20060;-70
2021/06/12 12:33:07;;;;;;;4.45;2.20;;;;;;;;;;5075629;28;20444;-70
2021/06/12 12:35:33;;;;;;;3.92;2.10;;;;;;;;;;5075471;28;20048;-70
2021/06/12 12:38:11;;;;;;;1.85;1.73;;;;;;;;;;5075062;28;20496;-70
2021/06/12 12:40:38;;;;;;;2.40;1.80;;;;;;;;;;5075217;28;20028;-70
2021/06/12 12:43:04;;;;;;;5.78;2.13;;;;;;;;;;5075814;28;20027;-71
2021/06/12 12:45:31;;;;;;;2.25;1.88;;;;;;;;;;5075339;28;20025;-70
2021/06/12 12:47:57;;;;;;;2.33;1.80;;;;;;;;;;5075209;28;20028;-70
2021/06/12 12:50:23;;;;;;;4.15;1.90;;;;;;;;;;5075057;28;20370;-70
2021/06/12 12:53:06;;;;;;;5.68;1.70;;;;;;;;;;5074981;28;20059;-71
2021/06/12 12:55:32;;;;;;;2.80;1.58;;;;;;;;;;5074908;28;20053;-70
2021/06/12 12:57:58;;;;;;;2.58;1.80;;;;;;;;;;5074920;28;20020;-70
2021/06/12 13:00:27;;;;;;;3.50;1.70;;;;;;;;;;5074723;28;20063;-70
2021/06/12 13:03:00;;;;;;;2.50;1.65;;;;;;;;;;5075110;28;20039;-69
2021/06/12 13:05:28;;;;;;;5.65;1.85;;;;;;;;;;5074822;28;20025;-70
2021/06/12 13:07:57;;;;;;;2.13;1.85;;;;;;;;;;5074989;28;20421;-70
2021/06/12 13:10:28;;;;;;;5.82;2.08;;;;;;;;;;5075061;28;20085;-70
2021/06/12 13:12:55;;;;;;;2.10;1.90;;;;;;;;;;5074792;28;20420;-70
2021/06/12 13:15:21;;;;;;;6.38;1.50;;;;;;;;;;5074699;28;20044;-70
2021/06/12 13:17:47;;;;;;;2.72;1.70;;;;;;;;;;5074587;28;20063;-71
2021/06/12 13:20:19;;;;;;;3.30;1.48;;;;;;;;;;5074526;28;20096;-70
2021/06/12 13:22:47;;;;;;;2.20;1.85;;;;;;;;;;5074697;28;20025;-70
2021/06/12 13:25:13;;;;;;;3.50;1.65;;;;;;;;;;5074601;28;20524;-70
2021/06/12 13:27:42;;;;;;;4.90;1.70;;;;;;;;;;5074592;28;20020;-71
2021/06/12 13:30:11;;;;;;;2.33;1.60;;;;;;;;;;5074370;28;20039;-71
2021/06/12 13:32:37;;;;;;;5.18;1.80;;;;;;;;;;5074495;28;20025;-70
2021/06/12 13:35:04;;;;;;;2.35;1.92;;;;;;;;;;5073365;28;20028;-70
2021/06/12 13:37:31;;;;;;;3.25;1.80;;;;;;;;;;5074275;28;20037;-70
2021/06/12 13:39:59;;;;;;;1.98;1.67;;;;;;;;;;5070783;28;20384;-70
2021/06/12 13:42:31;;;;;;;3.20;2.00;;;;;;;;;;5071465;28;20025;-70
2021/06/12 13:45:02;;;;;;;2.35;1.80;;;;;;;;;;5072676;28;20430;-70
2021/06/12 13:47:29;;;;;;;2.60;2.03;;;;;;;;;;5073715;28;20031;-70
2021/06/12 13:49:55;;;;;;;2.47;2.00;;;;;;;;;;5074032;28;20028;-70
2021/06/12 13:52:21;;;;;;;3.28;2.40;;;;;;;;;;5074086;28;20035;-70
2021/06/12 13:54:47;;;;;;;2.55;1.88;;;;;;;;;;5073380;28;20400;-69
2021/06/12 13:57:17;;;;;;;4.07;2.20;;;;;;;;;;5073703;28;20035;-70
2021/06/12 13:59:43;;;;;;;4.30;2.50;;;;;;;;;;5073789;28;20031;-70
2021/06/12 14:02:09;;;;;;;2.67;2.00;;;;;;;;;;5073536;28;20033;-69
2021/06/12 14:04:37;;;;;;;2.80;2.20;;;;;;;;;;5073700;28;20062;-69
2021/06/12 14:07:04;;;;;;;6.93;2.20;;;;;;;;;;5073305;28;20024;-69
2021/06/12 14:09:30;;;;;;;5.22;2.58;;;;;;;;;;5073262;28;20102;-70
2021/06/12 14:11:56;;;;;;;5.03;2.33;;;;;;;;;;5072502;28;20381;-69
2021/06/12 14:14:22;;;;;;;2.30;2.10;;;;;;;;;;5073544;28;20362;-69
2021/06/12 14:16:48;;;;;;;5.57;2.80;;;;;;;;;;5072967;28;20496;-69
2021/06/12 14:19:14;;;;;;;7.53;3.08;;;;;;;;;;5073145;28;20096;-70
2021/06/12 14:21:40;;;;;;;4.72;2.60;;;;;;;;;;5073273;28;20107;-70
2021/06/12 14:24:09;;;;;;;6.60;2.90;;;;;;;;;;5073051;28;20119;-70
2021/06/12 14:26:35;;;;;;;2.35;2.13;;;;;;;;;;5073385;28;20181;-69
2021/06/12 14:29:01;;;;;;;3.38;2.10;;;;;;;;;;5073164;28;20053;-70
2021/06/12 14:31:27;;;;;;;2.88;2.33;;;;;;;;;;5072978;28;20020;-69
2021/06/12 14:33:53;;;;;;;3.53;2.20;;;;;;;;;;5073402;28;20055;-70
2021/06/12 14:36:19;;;;;;;2.78;2.03;;;;;;;;;;5073113;28;20036;-70
2021/06/12 14:38:45;;;;;;;4.95;2.58;;;;;;;;;;5072888;28;20024;-70
2021/06/12 14:41:12;;;;;;;3.28;2.15;;;;;;;;;;5073034;28;20071;-69
2021/06/12 14:43:39;;;;;;;2.65;2.45;;;;;;;;;;5073317;28;20024;-69
2021/06/12 14:46:05;;;;;;;3.35;2.42;;;;;;;;;;5072778;28;20025;-69